Terminal Aerodrome Forecast
Issued by NWS Green Bay, WI

Home | Current Version | Previous Version | Text Only | Print | Product List | Glossary Off
Versions: 1 2 3 4 5 6 7 8 9 10 11 12 13 14 15 16 17

000
FTUS43 KGRB 150339 AAB
TAFGRB
TAF AMD
KGRB 150339Z 1504/1524 19012G18KT P6SM SCT008
      TEMPO 1504/1506 5SM BR BKN008
     FM150600 24010KT 4SM BR OVC008 WS010/24040KT
     FM151400 24009KT P6SM SCT025 BKN100
     FM152000 30009KT P6SM SCT025 BKN100=

USA.gov is the U.S. government's official web portal to all federal, state and local government web resources and services.